• Join FlightAware (Why Join?)
  • Login
  • US Flag 
03:33PM EDT


 

Airport Tracker/Info


-or-


 

Live Flight TrackerFlight Track Log ✈ TYR1107 ✈ 23-Apr-2013 ✈ LOWS / SZG - EDDF / FRA

Flight Track Log - Related Links

Times and Time Zones

All times are in EDT time to prevent confusion due to time zone crossing. See the TYR1107 flight status page for this flight to view local times or setup timezone preferences in your user account.

Time Position Orientation Groundspeed Altitude Reporting Facility
EDT Latitude Longitude Course Direction KTS MPH feet Rate Location/Type
12:46PM 47.9820 12.6547 309° West  Level Estimated
12:47PM 48.0290 12.5669 309° West  Level Estimated
12:48PM 48.0760 12.4790 309° West  Level Estimated
12:49PM 48.1228 12.3908 309° West  Level Estimated
12:50PM 48.1696 12.3026 309° West  Level Estimated
12:51PM 48.2164 12.2141 308° West  Level Estimated
12:52PM 48.2631 12.1255 308° West  Level Estimated
12:53PM 48.3097 12.0367 308° West  Level Estimated
12:54PM 48.3562 11.9478 308° West  Level Estimated
12:55PM 48.4026 11.8587 308° West  Level Estimated
12:56PM 48.4491 11.7695 308° West  Level Estimated
12:57PM 48.4954 11.6800 308° West  Level Estimated
12:58PM 48.5416 11.5905 308° West  Level Estimated
12:59PM 48.5878 11.5007 308° West  Level Estimated
01:00PM 48.6339 11.4108 308° West  Level Estimated
01:01PM 48.6800 11.3207 308° West  Level Estimated
01:02PM 48.7260 11.2305 308° West  Level Estimated
01:03PM 48.7719 11.1401 308° West  Level Estimated
01:04PM 48.8177 11.0495 308° West  Level Estimated
01:05PM 48.8635 10.9587 307° West  Level Estimated
01:06PM 48.9092 10.8679 307° West  Level Estimated
01:07PM 48.9548 10.7768 307° West  Level Estimated
01:08PM 49.0004 10.6855 307° West  Level Estimated
01:09PM 49.0458 10.5941 307° West  Level Estimated
01:10PM 49.0913 10.5026 307° West  Level Estimated
01:11PM 49.1366 10.4108 307° West  Level Estimated
01:12PM 49.1818 10.3189 307° West  Level Estimated
01:13PM 49.2270 10.2269 307° West  Level Estimated
01:14PM 49.2721 10.1346 307° West  Level Estimated
01:15PM 49.3172 10.0422 307° West  Level Estimated
01:16PM 49.3622 9.9496 307° West  Level Estimated
01:17PM 49.4071 9.8569 307° West  Level Estimated
01:18PM 49.4519 9.7640 307° West  Level Estimated
01:19PM 49.4966 9.6709 307° West  Level Estimated
01:20PM 49.5413 9.5776 306° West  Level Estimated
01:21PM 49.5859 9.4842 306° West  Level Estimated
01:22PM 49.6304 9.3906 306° West  Level Estimated
01:23PM 49.6749 9.2968 306° West  Level Estimated
01:24PM 49.7192 9.2029 306° West  Level Estimated
01:25PM 49.7635 9.1088 306° West  Level Estimated
01:26PM 49.8077 9.0145 306° West  Level Estimated
01:27PM 49.8519 8.9200 306° West  Level Estimated
01:28PM 49.8959 8.8254 306° West  Level Estimated
01:29PM 49.9399 8.7306 306° West  Level Estimated
01:30PM 49.9838 8.6356 306° West  Level Estimated
01:31PM 50.0264 8.5431 306° West  Level Estimated
01:32PM 50.0264 8.5431 73° East  Level Estimated
01:33PM 50.0264 8.5431 73° East  Level Estimated
01:34PM 50.0264 8.5431 73° East  Level Estimated
01:35PM 50.0264 8.5431 73° East  Level Estimated
01:36PM 50.0264 8.5431 73° East  Level Estimated
01:37PM 50.0264 8.5431 73° East  Level Estimated
01:38PM 50.0264 8.5431 73° East  Level Estimated
01:39PM 50.0264 8.5431 73° East  Level Estimated
01:40PM 50.0264 8.5431 73° East  Level Estimated
01:41PM 50.0264 8.5431 73° East  Level Estimated
01:42PM 50.0264 8.5431 73° East  Level Estimated
01:43PM 50.0264 8.5431 73° East  Level Estimated
01:44PM 50.0264 8.5431 73° East  Level Estimated
01:45PM 50.0264 8.5431 73° East  Level Estimated
01:46PM 50.0264 8.5431 73° East  Level Estimated
01:47PM 50.0264 8.5431 73° East  Level Estimated